Archival Weather

Ahwaz

Ahwaz, Iran (OIAW)

Report from: Sunday, October 1, 2023 9:30 AM +0330
Current time: Friday, July 19, 2024 5:30 AM +0330

Current weather – Weather history – Daily summaries
Weather forecast

Temperature28.0°C (82.4°F)
Heat index27.8°C (82.0°F)
Dew point12.0°C (53.6°F)
Winds 4 kts (2.1 m/s, 4.6 mph) Northwest (310°)
Clouds Sky clear
Altimeter29.80 in.Hg (1009 mB)
Relative humidity37 %
Density altitude1,837 ft. (560 m)
Remarks Ceiling and visibility OK
Flight conditions Visual Meteorological Conditions
Raw dataOIAW 010600Z 31004KT CAVOK 28/12 Q1009
An error has occurred. This application may no longer respond until reloaded. Reload 🗙